createdAt,value
2018-05-23T00:00:15.835Z,0
2018-05-23T00:01:17.217Z,0
2018-05-23T00:02:18.607Z,0
2018-05-23T00:03:19.996Z,0
2018-05-23T00:04:21.376Z,0
2018-05-23T00:05:22.762Z,0
2018-05-23T00:06:24.145Z,0
2018-05-23T00:07:25.536Z,0
2018-05-23T00:08:26.917Z,0
2018-05-23T00:09:28.301Z,0
2018-05-23T00:10:29.686Z,0
2018-05-23T00:11:31.070Z,0
2018-05-23T00:12:32.450Z,0
2018-05-23T00:13:33.842Z,0
2018-05-23T00:14:35.232Z,0
2018-05-23T00:15:36.607Z,0
2018-05-23T00:16:37.998Z,0
2018-05-23T00:17:39.384Z,0
2018-05-23T00:18:40.769Z,0
2018-05-23T00:19:42.163Z,0
2018-05-23T00:20:43.541Z,0
2018-05-23T00:21:44.925Z,0
2018-05-23T00:22:46.322Z,0
2018-05-23T00:23:47.709Z,0
2018-05-23T00:24:49.100Z,0
2018-05-23T00:25:50.478Z,0
2018-05-23T00:26:51.863Z,0
2018-05-23T00:27:53.249Z,0
2018-05-23T00:28:54.631Z,0
2018-05-23T00:29:56.015Z,0
2018-05-23T00:30:57.403Z,0
2018-05-23T00:31:58.789Z,0
2018-05-23T00:33:00.178Z,0
2018-05-23T00:34:01.564Z,0
2018-05-23T00:35:02.947Z,0
2018-05-23T00:36:04.330Z,0
2018-05-23T00:37:05.716Z,0
2018-05-23T00:38:07.090Z,0
2018-05-23T00:39:08.477Z,0
2018-05-23T00:40:09.861Z,0
2018-05-23T00:41:11.247Z,0
2018-05-23T00:42:12.644Z,0
2018-05-23T00:43:14.029Z,0
2018-05-23T00:44:15.408Z,0
2018-05-23T00:45:16.808Z,0
2018-05-23T00:46:18.197Z,0
2018-05-23T00:47:19.587Z,0
2018-05-23T00:48:20.970Z,0
2018-05-23T00:49:22.364Z,0
2018-05-23T00:50:23.752Z,0
2018-05-23T00:51:25.141Z,0
2018-05-23T00:52:26.529Z,0
2018-05-23T00:53:27.907Z,0
2018-05-23T00:54:29.299Z,0
2018-05-23T00:55:30.677Z,0
2018-05-23T00:56:32.065Z,0
2018-05-23T00:57:33.452Z,0
2018-05-23T00:58:34.837Z,0
2018-05-23T00:59:36.222Z,0
2018-05-23T01:00:37.615Z,0
2018-05-23T01:01:39.004Z,0
2018-05-23T01:02:40.383Z,0
2018-05-23T01:03:41.762Z,0
2018-05-23T01:04:43.146Z,0
2018-05-23T01:05:44.534Z,0
2018-05-23T01:06:46.001Z,0
2018-05-23T01:07:47.308Z,0
2018-05-23T01:08:48.691Z,0
2018-05-23T01:09:50.074Z,0
2018-05-23T01:10:51.457Z,0
2018-05-23T01:11:52.837Z,0
2018-05-23T01:12:54.222Z,0
2018-05-23T01:13:55.607Z,0
2018-05-23T01:14:56.991Z,0
2018-05-23T01:15:58.380Z,0
2018-05-23T01:16:59.763Z,0
2018-05-23T01:18:01.157Z,0
2018-05-23T01:19:02.543Z,0
2018-05-23T01:20:03.928Z,0
2018-05-23T01:21:05.312Z,0
2018-05-23T01:22:06.685Z,0
2018-05-23T01:23:08.061Z,0
2018-05-23T01:24:10.391Z,0
2018-05-23T01:25:11.773Z,0
2018-05-23T01:26:13.163Z,0
2018-05-23T01:27:14.545Z,0
2018-05-23T01:28:15.929Z,0
2018-05-23T01:29:17.318Z,0
2018-05-23T01:30:18.695Z,0
2018-05-23T01:31:20.084Z,0
2018-05-23T01:32:21.472Z,0
2018-05-23T01:33:22.848Z,0
2018-05-23T01:34:24.236Z,0
2018-05-23T01:35:25.614Z,0
2018-05-23T01:36:27.001Z,0
2018-05-23T01:37:28.393Z,0
2018-05-23T01:38:29.776Z,0
2018-05-23T01:39:31.156Z,0
2018-05-23T01:40:32.546Z,0
2018-05-23T01:41:33.937Z,0
2018-05-23T01:42:35.325Z,0
2018-05-23T01:43:36.708Z,0
2018-05-23T01:44:38.090Z,0
2018-05-23T01:45:39.483Z,0
2018-05-23T01:46:40.875Z,0
2018-05-23T01:47:42.257Z,0
2018-05-23T01:48:43.639Z,0
2018-05-23T01:49:45.023Z,0
2018-05-23T01:50:46.405Z,0
2018-05-23T01:51:47.782Z,0
2018-05-23T01:52:50.063Z,0
2018-05-23T01:53:51.446Z,0
2018-05-23T01:54:52.820Z,0
2018-05-23T01:55:54.208Z,0
2018-05-23T01:56:55.592Z,0
2018-05-23T01:57:56.970Z,0
2018-05-23T01:58:58.362Z,0
2018-05-23T01:59:59.744Z,0
2018-05-23T02:01:01.132Z,0
2018-05-23T02:02:02.508Z,0
2018-05-23T02:03:03.907Z,0
2018-05-23T02:04:05.290Z,0
2018-05-23T02:05:06.667Z,0
2018-05-23T02:06:08.049Z,0
2018-05-23T02:07:09.421Z,0
2018-05-23T02:08:10.809Z,0
2018-05-23T02:09:12.186Z,0
2018-05-23T02:10:13.574Z,0
2018-05-23T02:11:14.964Z,0
2018-05-23T02:12:16.340Z,0
2018-05-23T02:13:17.712Z,0
2018-05-23T02:14:19.105Z,0
2018-05-23T02:15:20.483Z,0
2018-05-23T02:16:21.871Z,0
2018-05-23T02:17:23.251Z,0
2018-05-23T02:18:24.635Z,0
2018-05-23T02:19:26.021Z,0
2018-05-23T02:20:27.397Z,0
2018-05-23T02:21:28.776Z,0
2018-05-23T02:22:30.162Z,0
2018-05-23T02:23:32.286Z,0
2018-05-23T02:24:32.875Z,0
2018-05-23T02:25:34.268Z,0
2018-05-23T02:26:35.646Z,0
2018-05-23T02:27:37.023Z,0
2018-05-23T02:28:38.401Z,0
2018-05-23T02:29:39.791Z,0
2018-05-23T02:30:41.172Z,0
2018-05-23T02:31:42.560Z,0
2018-05-23T02:32:43.936Z,0
2018-05-23T02:33:45.323Z,0
2018-05-23T02:34:46.700Z,0
2018-05-23T02:35:48.090Z,0
2018-05-23T02:36:49.478Z,0
2018-05-23T02:37:50.858Z,0
2018-05-23T02:38:52.239Z,0
2018-05-23T02:39:53.630Z,0
2018-05-23T02:40:55.013Z,0
2018-05-23T02:41:56.405Z,0
2018-05-23T02:42:57.780Z,0
2018-05-23T02:43:59.162Z,0
2018-05-23T02:45:00.556Z,0
2018-05-23T02:46:01.943Z,0
2018-05-23T02:47:03.363Z,0
2018-05-23T02:48:04.705Z,0
2018-05-23T02:49:06.088Z,0
2018-05-23T02:50:07.473Z,0
2018-05-23T02:51:08.858Z,0
2018-05-23T02:52:10.239Z,0
2018-05-23T02:53:11.630Z,0
2018-05-23T02:54:13.016Z,0
2018-05-23T02:55:14.399Z,0
2018-05-23T02:56:15.790Z,0
2018-05-23T02:57:17.178Z,0
2018-05-23T02:58:18.558Z,0
2018-05-23T02:59:19.946Z,0
2018-05-23T03:00:21.326Z,0
2018-05-23T03:01:22.710Z,5
2018-05-23T03:02:24.088Z,5
2018-05-23T03:03:25.484Z,5
2018-05-23T03:04:26.879Z,5
2018-05-23T03:05:28.260Z,5
2018-05-23T03:06:29.644Z,5
2018-05-23T03:07:31.022Z,5
2018-05-23T03:08:32.410Z,5
2018-05-23T03:09:33.796Z,5
2018-05-23T03:10:35.185Z,5
2018-05-23T03:11:36.565Z,5
2018-05-23T03:12:37.945Z,5
2018-05-23T03:13:39.338Z,5
2018-05-23T03:14:40.721Z,5
2018-05-23T03:15:42.103Z,5
2018-05-23T03:16:43.495Z,10
2018-05-23T03:17:44.879Z,10
2018-05-23T03:18:46.260Z,10
2018-05-23T03:19:47.653Z,10
2018-05-23T03:20:49.046Z,10
2018-05-23T03:21:50.427Z,10
2018-05-23T03:22:51.813Z,10
2018-05-23T03:23:53.210Z,10
2018-05-23T03:24:54.584Z,15
2018-05-23T03:25:55.974Z,15
2018-05-23T03:26:57.356Z,15
2018-05-23T03:27:58.754Z,15
2018-05-23T03:29:00.142Z,15
2018-05-23T03:30:01.539Z,20
2018-05-23T03:31:02.922Z,20
2018-05-23T03:32:04.310Z,20
2018-05-23T03:33:05.697Z,20
2018-05-23T03:34:07.089Z,20
2018-05-23T03:35:08.476Z,20
2018-05-23T03:36:09.865Z,20
2018-05-23T03:37:11.255Z,25
2018-05-23T03:38:12.647Z,25
2018-05-23T03:39:14.037Z,25
2018-05-23T03:40:15.429Z,25
2018-05-23T03:41:16.822Z,25
2018-05-23T03:42:18.213Z,25
2018-05-23T03:43:19.606Z,30
2018-05-23T03:44:20.990Z,30
2018-05-23T03:45:22.382Z,30
2018-05-23T03:46:23.763Z,30
2018-05-23T03:47:25.149Z,30
2018-05-23T03:48:26.537Z,35
2018-05-23T03:49:27.920Z,35
2018-05-23T03:50:29.934Z,30
2018-05-23T03:51:31.324Z,30
2018-05-23T03:52:32.776Z,35
2018-05-23T03:53:34.042Z,35
2018-05-23T03:54:35.424Z,35
2018-05-23T03:55:36.810Z,35
2018-05-23T03:56:38.219Z,35
2018-05-23T03:57:39.590Z,35
2018-05-23T03:58:40.973Z,35
2018-05-23T03:59:42.359Z,30
2018-05-23T04:00:43.745Z,30
2018-05-23T04:01:45.139Z,30
2018-05-23T04:02:46.535Z,30
2018-05-23T04:03:47.919Z,35
2018-05-23T04:04:49.311Z,35
2018-05-23T04:05:50.694Z,35
2018-05-23T04:06:52.093Z,35
2018-05-23T04:07:53.487Z,40
2018-05-23T04:08:54.868Z,45
2018-05-23T04:09:56.261Z,45
2018-05-23T04:10:57.647Z,45
2018-05-23T04:11:59.037Z,45
2018-05-23T04:13:00.425Z,45
2018-05-23T04:14:01.817Z,45
2018-05-23T04:15:03.201Z,45
2018-05-23T04:16:04.616Z,45
2018-05-23T04:17:05.996Z,45
2018-05-23T04:18:07.386Z,45
2018-05-23T04:19:08.775Z,50
2018-05-23T04:20:10.170Z,50
2018-05-23T04:21:11.555Z,50
2018-05-23T04:22:12.942Z,50
2018-05-23T04:23:14.328Z,50
2018-05-23T04:24:15.721Z,50
2018-05-23T04:25:17.126Z,50
2018-05-23T04:26:18.515Z,50
2018-05-23T04:27:19.912Z,50
2018-05-23T04:28:21.302Z,50
2018-05-23T04:29:22.695Z,55
2018-05-23T04:30:24.093Z,55
2018-05-23T04:31:25.480Z,55
2018-05-23T04:32:26.868Z,60
2018-05-23T04:33:28.274Z,60
2018-05-23T04:34:29.671Z,60
2018-05-23T04:35:31.065Z,65
2018-05-23T04:36:32.447Z,70
2018-05-23T04:37:33.838Z,70
2018-05-23T04:38:35.232Z,75
2018-05-23T04:39:36.613Z,85
2018-05-23T04:40:38.010Z,95
2018-05-23T04:41:39.398Z,115
2018-05-23T04:42:40.804Z,125
2018-05-23T04:43:42.203Z,190
2018-05-23T04:44:43.534Z,330
2018-05-23T04:45:44.932Z,365
2018-05-23T04:46:46.315Z,400
2018-05-23T04:47:47.705Z,410
2018-05-23T04:48:49.114Z,435
2018-05-23T04:49:50.488Z,440
2018-05-23T04:50:51.885Z,460
2018-05-23T04:51:53.287Z,470
2018-05-23T04:52:54.672Z,460
2018-05-23T04:53:56.055Z,495
2018-05-23T04:54:57.458Z,485
2018-05-23T04:55:58.844Z,495
2018-05-23T04:57:00.247Z,450
2018-05-23T04:58:01.642Z,350
2018-05-23T04:59:03.040Z,245
2018-05-23T05:00:04.438Z,315
2018-05-23T05:01:05.833Z,330
2018-05-23T05:02:07.228Z,235
2018-05-23T05:03:08.626Z,295
2018-05-23T05:04:10.016Z,460
2018-05-23T05:05:11.428Z,545
2018-05-23T05:06:12.828Z,415
2018-05-23T05:07:14.224Z,335
2018-05-23T05:08:15.626Z,225
2018-05-23T05:09:17.018Z,230
2018-05-23T05:10:18.419Z,225
2018-05-23T05:11:19.822Z,220
2018-05-23T05:12:21.293Z,210
2018-05-23T05:13:22.615Z,205
2018-05-23T05:14:24.020Z,185
2018-05-23T05:15:25.410Z,175
2018-05-23T05:16:26.801Z,170
2018-05-23T05:17:28.198Z,160
2018-05-23T05:18:29.598Z,150
2018-05-23T05:19:30.990Z,145
2018-05-23T05:20:32.390Z,145
2018-05-23T05:21:33.776Z,135
2018-05-23T05:22:35.178Z,130
2018-05-23T05:23:36.575Z,130
2018-05-23T05:24:37.969Z,125
2018-05-23T05:25:39.370Z,120
2018-05-23T05:26:40.753Z,115
2018-05-23T05:27:42.148Z,110
2018-05-23T05:28:43.542Z,140
2018-05-23T05:29:44.958Z,370
2018-05-23T05:30:46.358Z,665
2018-05-23T05:31:47.786Z,725
2018-05-23T05:32:49.140Z,710
2018-05-23T05:33:50.538Z,450
2018-05-23T05:34:51.922Z,230
2018-05-23T05:35:53.323Z,225
2018-05-23T05:36:54.720Z,235
2018-05-23T05:37:56.116Z,245
2018-05-23T05:38:57.512Z,190
2018-05-23T05:39:58.996Z,155
2018-05-23T05:41:00.319Z,165
2018-05-23T05:42:01.716Z,210
2018-05-23T05:43:03.119Z,245
2018-05-23T05:44:04.515Z,300
2018-05-23T05:45:05.905Z,305
2018-05-23T05:46:07.293Z,310
2018-05-23T05:47:08.701Z,1000
2018-05-23T05:48:10.091Z,1100
2018-05-23T05:49:11.495Z,290
2018-05-23T05:50:12.886Z,1270
2018-05-23T05:51:14.268Z,1180
2018-05-23T05:52:15.670Z,1130
2018-05-23T05:53:17.072Z,1130
2018-05-23T05:54:18.478Z,915
2018-05-23T05:55:19.875Z,1245
2018-05-23T05:56:21.272Z,890
2018-05-23T05:57:22.669Z,900
2018-05-23T05:58:24.067Z,665
2018-05-23T05:59:25.483Z,495
2018-05-23T06:00:26.875Z,485
2018-05-23T06:01:28.281Z,485
2018-05-23T06:02:29.670Z,490
2018-05-23T06:03:31.071Z,485
2018-05-23T06:04:32.472Z,480
2018-05-23T06:05:33.872Z,475
2018-05-23T06:06:35.277Z,465
2018-05-23T06:07:36.670Z,460
2018-05-23T06:08:38.067Z,450
2018-05-23T06:09:39.522Z,445
2018-05-23T06:10:40.872Z,490
2018-05-23T06:11:42.275Z,440
2018-05-23T06:12:43.683Z,425
2018-05-23T06:13:45.088Z,425
2018-05-23T06:14:46.497Z,390
2018-05-23T06:15:47.893Z,405
2018-05-23T06:16:49.292Z,390
2018-05-23T06:17:50.681Z,370
2018-05-23T06:18:52.091Z,365
2018-05-23T06:19:53.495Z,380
2018-05-23T06:20:54.885Z,340
2018-05-23T06:21:56.286Z,340
2018-05-23T06:22:57.699Z,320
2018-05-23T06:23:59.100Z,375
2018-05-23T06:25:00.491Z,300
2018-05-23T06:26:01.890Z,250
2018-05-23T06:27:03.492Z,255
2018-05-23T06:28:04.725Z,280
2018-05-23T06:29:06.126Z,280
2018-05-23T06:30:08.373Z,295
2018-05-23T06:31:10.373Z,260
2018-05-23T06:32:11.098Z,275
2018-05-23T06:33:12.502Z,260
2018-05-23T06:34:13.900Z,250
2018-05-23T06:35:15.294Z,270
2018-05-23T06:36:16.690Z,235
2018-05-23T06:37:18.088Z,275
2018-05-23T06:38:19.509Z,230
2018-05-23T06:39:21.004Z,240
2018-05-23T06:40:22.397Z,380
2018-05-23T06:41:23.795Z,275
2018-05-23T06:42:25.198Z,260
2018-05-23T06:43:26.642Z,230
2018-05-23T06:44:28.001Z,220
2018-05-23T06:45:29.961Z,215
2018-05-23T06:46:31.484Z,205
2018-05-23T06:47:33.005Z,210
2018-05-23T06:48:34.416Z,225
2018-05-23T06:49:35.810Z,200
2018-05-23T06:50:37.218Z,190
2018-05-23T06:51:38.608Z,215
2018-05-23T06:52:40.013Z,205
2018-05-23T06:53:41.637Z,220
2018-05-23T06:54:43.254Z,200
2018-05-23T06:55:44.649Z,205
2018-05-23T06:56:46.046Z,195
2018-05-23T06:57:47.455Z,200
2018-05-23T06:58:48.850Z,195
2018-05-23T06:59:50.249Z,205
2018-05-23T07:00:51.678Z,200
2018-05-23T07:01:53.309Z,195
2018-05-23T07:02:54.659Z,210
2018-05-23T07:03:57.382Z,190
2018-05-23T07:04:58.778Z,195
2018-05-23T07:06:00.174Z,190
2018-05-23T07:07:01.576Z,195
2018-05-23T07:08:02.978Z,185
2018-05-23T07:09:04.377Z,195
2018-05-23T07:10:05.782Z,195
2018-05-23T07:11:07.202Z,195
2018-05-23T07:12:08.751Z,190
2018-05-23T07:13:10.152Z,190
2018-05-23T07:14:11.539Z,205
2018-05-23T07:15:12.934Z,190
2018-05-23T07:16:14.329Z,190
2018-05-23T07:17:15.739Z,185
2018-05-23T07:18:17.132Z,190
2018-05-23T07:19:18.527Z,185
2018-05-23T07:20:19.928Z,220
2018-05-23T07:21:21.323Z,185
2018-05-23T07:22:23.034Z,200
2018-05-23T07:23:24.430Z,205
2018-05-23T07:24:25.874Z,190
2018-05-23T07:25:27.260Z,185
2018-05-23T07:26:28.660Z,185
2018-05-23T07:27:30.056Z,190
2018-05-23T07:28:31.452Z,185
2018-05-23T07:29:32.841Z,180
2018-05-23T07:30:35.105Z,190
2018-05-23T07:31:37.232Z,190
2018-05-23T07:32:38.552Z,185
2018-05-23T07:33:39.892Z,195
2018-05-23T07:34:41.300Z,200
2018-05-23T07:35:42.696Z,185
2018-05-23T07:36:44.089Z,180
2018-05-23T07:37:45.494Z,185
2018-05-23T07:38:46.889Z,185
2018-05-23T07:39:48.405Z,180
2018-05-23T07:40:49.799Z,190
2018-05-23T07:41:51.197Z,185
2018-05-23T07:42:52.591Z,180
2018-05-23T07:43:53.994Z,180
2018-05-23T07:44:55.397Z,185
2018-05-23T07:45:56.808Z,175
2018-05-23T07:46:58.175Z,180
2018-05-23T07:47:59.771Z,180
2018-05-23T07:49:01.174Z,175
2018-05-23T07:50:02.570Z,180
2018-05-23T07:51:03.999Z,180
2018-05-23T07:52:05.388Z,175
2018-05-23T07:53:06.797Z,180
2018-05-23T07:54:08.468Z,170
2018-05-23T07:55:09.882Z,170
2018-05-23T07:56:11.278Z,175
2018-05-23T07:57:12.683Z,180
2018-05-23T07:58:14.078Z,175
2018-05-23T07:59:15.472Z,180
2018-05-23T08:00:16.866Z,170
2018-05-23T08:01:18.258Z,180
2018-05-23T08:02:19.668Z,175
2018-05-23T08:03:21.050Z,175
2018-05-23T08:04:22.453Z,180
2018-05-23T08:05:23.854Z,180
2018-05-23T08:06:25.254Z,180
2018-05-23T08:07:26.652Z,170
2018-05-23T08:08:28.051Z,180
2018-05-23T08:09:29.449Z,180
2018-05-23T08:10:30.848Z,180
2018-05-23T08:11:32.244Z,175
2018-05-23T08:12:33.652Z,170
2018-05-23T08:13:35.053Z,175
2018-05-23T08:14:36.449Z,170
2018-05-23T08:15:37.862Z,175
2018-05-23T08:16:39.257Z,165
2018-05-23T08:17:40.650Z,170
2018-05-23T08:18:42.040Z,170
2018-05-23T08:19:43.443Z,175
2018-05-23T08:20:44.845Z,175
2018-05-23T08:21:46.242Z,175
2018-05-23T08:22:47.642Z,165
2018-05-23T08:23:49.034Z,165
2018-05-23T08:24:50.434Z,165
2018-05-23T08:25:51.825Z,170
2018-05-23T08:26:53.229Z,180
2018-05-23T08:27:54.619Z,165
2018-05-23T08:28:56.020Z,175
2018-05-23T08:29:57.409Z,160
2018-05-23T08:30:58.819Z,155
2018-05-23T08:32:00.215Z,170
2018-05-23T08:33:01.603Z,160
2018-05-23T08:34:02.999Z,160
2018-05-23T08:35:04.396Z,165
2018-05-23T08:36:05.784Z,165
2018-05-23T08:37:07.184Z,160
2018-05-23T08:38:08.580Z,170
2018-05-23T08:39:09.968Z,170
2018-05-23T08:40:11.372Z,160
2018-05-23T08:41:12.763Z,160
2018-05-23T08:42:14.166Z,150
2018-05-23T08:43:15.565Z,150
2018-05-23T08:44:16.970Z,155
2018-05-23T08:45:18.367Z,155
2018-05-23T08:46:19.769Z,150
2018-05-23T08:47:21.161Z,150
2018-05-23T08:48:22.548Z,155
2018-05-23T08:49:23.942Z,160
2018-05-23T08:50:25.338Z,165
2018-05-23T08:51:26.742Z,175
2018-05-23T08:52:28.142Z,175
2018-05-23T08:53:29.544Z,175
2018-05-23T08:54:30.941Z,180
2018-05-23T08:55:32.338Z,185
2018-05-23T08:56:33.742Z,185
2018-05-23T08:57:35.145Z,180
2018-05-23T08:58:36.536Z,175
2018-05-23T08:59:37.945Z,170
2018-05-23T09:00:39.342Z,145
2018-05-23T09:01:40.740Z,145
2018-05-23T09:02:42.141Z,130
2018-05-23T09:03:43.541Z,130
2018-05-23T09:04:44.946Z,125
2018-05-23T09:05:46.332Z,140
2018-05-23T09:06:47.745Z,155
2018-05-23T09:07:49.137Z,170
2018-05-23T09:08:50.542Z,145
2018-05-23T09:09:51.939Z,165
2018-05-23T09:10:53.331Z,160
2018-05-23T09:11:54.730Z,165
2018-05-23T09:12:56.136Z,165
2018-05-23T09:13:57.532Z,160
2018-05-23T09:14:58.928Z,150
2018-05-23T09:16:00.323Z,155
2018-05-23T09:17:01.709Z,155
2018-05-23T09:18:03.837Z,150
2018-05-23T09:19:05.227Z,150
2018-05-23T09:20:06.633Z,155
2018-05-23T09:21:08.040Z,160
2018-05-23T09:22:09.432Z,160
2018-05-23T09:23:10.830Z,160
2018-05-23T09:24:12.235Z,170
2018-05-23T09:25:13.621Z,170
2018-05-23T09:26:15.022Z,170
2018-05-23T09:27:16.427Z,175
2018-05-23T09:28:17.832Z,180
2018-05-23T09:29:19.232Z,170
2018-05-23T09:30:20.628Z,170
2018-05-23T09:31:22.028Z,175
2018-05-23T09:32:23.434Z,175
2018-05-23T09:33:24.843Z,175
2018-05-23T09:34:26.240Z,175
2018-05-23T09:35:27.634Z,185
2018-05-23T09:36:29.038Z,180
2018-05-23T09:37:30.438Z,175
2018-05-23T09:38:31.831Z,175
2018-05-23T09:39:33.228Z,185
2018-05-23T09:40:34.635Z,175
2018-05-23T09:41:36.029Z,170
2018-05-23T09:42:37.429Z,165
2018-05-23T09:43:38.825Z,165
2018-05-23T09:44:40.222Z,165
2018-05-23T09:45:41.619Z,160
2018-05-23T09:46:43.013Z,160
2018-05-23T09:47:44.411Z,155
2018-05-23T09:48:45.813Z,145
2018-05-23T09:49:47.215Z,130
2018-05-23T09:50:48.612Z,140
2018-05-23T09:51:50.013Z,130
2018-05-23T09:52:51.412Z,145
2018-05-23T09:53:52.800Z,140
2018-05-23T09:54:54.194Z,150
2018-05-23T09:55:55.596Z,165
2018-05-23T09:56:56.992Z,150
2018-05-23T09:57:58.390Z,145
2018-05-23T09:58:59.792Z,145
2018-05-23T10:00:01.210Z,155
2018-05-23T10:01:02.611Z,160
2018-05-23T10:02:04.004Z,165
2018-05-23T10:03:05.399Z,160
2018-05-23T10:04:06.794Z,155
2018-05-23T10:05:08.194Z,160
2018-05-23T10:06:09.590Z,150
2018-05-23T10:07:10.990Z,150
2018-05-23T10:08:12.392Z,155
2018-05-23T10:09:13.790Z,155
2018-05-23T10:10:15.191Z,155
2018-05-23T10:11:16.587Z,155
2018-05-23T10:12:17.985Z,160
2018-05-23T10:13:19.387Z,150
2018-05-23T10:14:20.784Z,160
2018-05-23T10:15:22.173Z,145
2018-05-23T10:16:23.565Z,155
2018-05-23T10:17:24.970Z,155
2018-05-23T10:18:26.378Z,150
2018-05-23T10:19:27.776Z,160
2018-05-23T10:20:30.171Z,155
2018-05-23T10:21:31.566Z,145
2018-05-23T10:22:32.984Z,150
2018-05-23T10:23:34.375Z,150
2018-05-23T10:24:35.774Z,150
2018-05-23T10:25:37.165Z,155
2018-05-23T10:26:38.570Z,160
2018-05-23T10:27:39.971Z,165
2018-05-23T10:28:41.369Z,175
2018-05-23T10:29:42.762Z,160
2018-05-23T10:30:44.164Z,160
2018-05-23T10:31:45.859Z,160
2018-05-23T10:32:47.267Z,150
2018-05-23T10:33:48.667Z,145
2018-05-23T10:34:50.057Z,145
2018-05-23T10:35:51.453Z,145
2018-05-23T10:36:52.849Z,165
2018-05-23T10:37:54.251Z,165
2018-05-23T10:38:55.651Z,160
2018-05-23T10:39:57.040Z,170
2018-05-23T10:40:58.449Z,180
2018-05-23T10:41:59.839Z,170
2018-05-23T10:43:01.240Z,175
2018-05-23T10:44:02.642Z,175
2018-05-23T10:45:04.038Z,175
2018-05-23T10:46:05.466Z,175
2018-05-23T10:47:06.849Z,175
2018-05-23T10:48:08.236Z,175
2018-05-23T10:49:09.628Z,175
2018-05-23T10:50:11.024Z,180
2018-05-23T10:51:12.429Z,180
2018-05-23T10:52:13.834Z,180
2018-05-23T10:53:15.234Z,185
2018-05-23T10:54:16.637Z,180
2018-05-23T10:55:18.038Z,180
2018-05-23T10:56:19.441Z,180
2018-05-23T10:57:20.851Z,180
2018-05-23T10:58:22.236Z,185
2018-05-23T10:59:23.631Z,190
2018-05-23T11:00:25.035Z,175
2018-05-23T11:01:26.433Z,175
2018-05-23T11:02:27.831Z,170
2018-05-23T11:03:29.224Z,175
2018-05-23T11:04:30.624Z,170
2018-05-23T11:05:32.031Z,180
2018-05-23T11:06:33.421Z,205
2018-05-23T11:07:34.824Z,235
2018-05-23T11:08:36.222Z,250
2018-05-23T11:09:37.633Z,265
2018-05-23T11:10:39.030Z,275
2018-05-23T11:11:40.426Z,255
2018-05-23T11:12:41.824Z,255
2018-05-23T11:13:43.223Z,290
2018-05-23T11:14:44.713Z,265
2018-05-23T11:15:46.018Z,255
2018-05-23T11:16:47.414Z,280
2018-05-23T11:17:48.813Z,255
2018-05-23T11:18:50.216Z,265
2018-05-23T11:19:51.619Z,275
2018-05-23T11:20:53.026Z,275
2018-05-23T11:21:54.418Z,280
2018-05-23T11:22:55.824Z,270
2018-05-23T11:23:57.222Z,430
2018-05-23T11:24:58.609Z,900
2018-05-23T11:26:00.012Z,1410
2018-05-23T11:27:01.404Z,1670
2018-05-23T11:28:02.822Z,1700
2018-05-23T11:29:04.217Z,1700
2018-05-23T11:30:05.612Z,1795
2018-05-23T11:31:07.020Z,1845
2018-05-23T11:32:08.414Z,1915
2018-05-23T11:33:09.824Z,1945
2018-05-23T11:34:11.233Z,2005
2018-05-23T11:35:12.641Z,1995
2018-05-23T11:36:14.048Z,2035
2018-05-23T11:37:15.447Z,2020
2018-05-23T11:38:16.854Z,1990
2018-05-23T11:39:18.254Z,1960
2018-05-23T11:40:19.657Z,1950
2018-05-23T11:41:21.056Z,1950
2018-05-23T11:42:22.449Z,1975
2018-05-23T11:43:23.867Z,2015
2018-05-23T11:44:25.330Z,2000
2018-05-23T11:45:26.669Z,1970
2018-05-23T11:46:28.080Z,1960
2018-05-23T11:47:29.472Z,1960
2018-05-23T11:48:30.874Z,2035
2018-05-23T11:49:32.275Z,2065
2018-05-23T11:50:33.683Z,2070
2018-05-23T11:51:35.082Z,2015
2018-05-23T11:52:36.485Z,2030
2018-05-23T11:53:37.886Z,1990
2018-05-23T11:54:39.372Z,1975
2018-05-23T11:55:40.703Z,1940
2018-05-23T11:56:42.109Z,1905
2018-05-23T11:57:43.514Z,1925
2018-05-23T11:58:44.915Z,1925
2018-05-23T11:59:47.224Z,1935
2018-05-23T12:00:48.631Z,1990
2018-05-23T12:01:50.053Z,2015
2018-05-23T12:02:51.434Z,2030
2018-05-23T12:03:52.889Z,2015
2018-05-23T12:04:54.245Z,1960
2018-05-23T12:05:55.656Z,1930
2018-05-23T12:06:57.057Z,1855
2018-05-23T12:07:58.460Z,1815
2018-05-23T12:08:59.873Z,1760
2018-05-23T12:10:01.274Z,1700
2018-05-23T12:11:02.681Z,1325
2018-05-23T12:12:04.096Z,1785
2018-05-23T12:13:05.498Z,1745
2018-05-23T12:14:06.896Z,1740
2018-05-23T12:15:08.311Z,1780
2018-05-23T12:16:09.709Z,1350
2018-05-23T12:17:11.113Z,675
2018-05-23T12:18:12.508Z,315
2018-05-23T12:19:13.917Z,230
2018-05-23T12:20:15.319Z,200
2018-05-23T12:21:16.718Z,165
2018-05-23T12:22:18.121Z,165
2018-05-23T12:23:19.515Z,155
2018-05-23T12:24:20.920Z,145
2018-05-23T12:25:22.325Z,140
2018-05-23T12:26:23.725Z,135
2018-05-23T12:27:25.129Z,130
2018-05-23T12:28:26.531Z,125
2018-05-23T12:29:27.934Z,120
2018-05-23T12:30:29.329Z,120
2018-05-23T12:31:30.720Z,115
2018-05-23T12:32:32.115Z,115
2018-05-23T12:33:33.519Z,110
2018-05-23T12:34:34.930Z,115
2018-05-23T12:35:36.323Z,110
2018-05-23T12:36:37.725Z,110
2018-05-23T12:37:39.118Z,105
2018-05-23T12:38:40.525Z,105
2018-05-23T12:39:41.918Z,105
2018-05-23T12:40:43.320Z,100
2018-05-23T12:41:44.722Z,100
2018-05-23T12:42:46.127Z,100
2018-05-23T12:43:47.528Z,100
2018-05-23T12:44:48.929Z,100
2018-05-23T12:45:50.327Z,95
2018-05-23T12:46:51.728Z,95
2018-05-23T12:47:53.123Z,95
2018-05-23T12:48:54.519Z,95
2018-05-23T12:49:55.925Z,95
2018-05-23T12:50:57.327Z,90
2018-05-23T12:51:58.713Z,90
2018-05-23T12:53:00.109Z,90
2018-05-23T12:54:01.507Z,90
2018-05-23T12:55:02.897Z,90
2018-05-23T12:56:04.283Z,85
2018-05-23T12:57:05.695Z,85
2018-05-23T12:58:07.094Z,90
2018-05-23T12:59:08.501Z,85
2018-05-23T13:00:09.917Z,85
2018-05-23T13:01:11.306Z,85
2018-05-23T13:02:12.773Z,85
2018-05-23T13:03:14.166Z,80
2018-05-23T13:04:15.570Z,80
2018-05-23T13:05:16.969Z,80
2018-05-23T13:06:18.366Z,80
2018-05-23T13:07:19.772Z,85
2018-05-23T13:08:21.159Z,80
2018-05-23T13:09:22.555Z,80
2018-05-23T13:10:23.958Z,80
2018-05-23T13:11:25.352Z,80
2018-05-23T13:12:26.826Z,80
2018-05-23T13:13:28.149Z,80
2018-05-23T13:14:29.544Z,75
2018-05-23T13:15:30.939Z,75
2018-05-23T13:16:32.339Z,75
2018-05-23T13:17:33.734Z,70
2018-05-23T13:18:35.137Z,70
2018-05-23T13:19:36.523Z,70
2018-05-23T13:20:37.931Z,70
2018-05-23T13:21:39.330Z,70
2018-05-23T13:22:40.736Z,70
2018-05-23T13:23:42.131Z,70
2018-05-23T13:24:43.527Z,75
2018-05-23T13:25:45.009Z,70
2018-05-23T13:26:46.283Z,70
2018-05-23T13:27:47.688Z,70
2018-05-23T13:28:49.076Z,70
2018-05-23T13:29:50.478Z,70
2018-05-23T13:30:51.877Z,70
2018-05-23T13:31:53.291Z,70
2018-05-23T13:32:54.678Z,70
2018-05-23T13:33:56.067Z,70
2018-05-23T13:34:57.463Z,70
2018-05-23T13:35:58.870Z,70
2018-05-23T13:37:00.258Z,70
2018-05-23T13:38:01.664Z,70
2018-05-23T13:39:03.117Z,70
2018-05-23T13:40:04.466Z,70
2018-05-23T13:41:05.868Z,70
2018-05-23T13:42:07.276Z,70
2018-05-23T13:43:08.660Z,70
2018-05-23T13:44:10.056Z,65
2018-05-23T13:45:11.500Z,65
2018-05-23T13:46:12.868Z,65
2018-05-23T13:47:14.256Z,65
2018-05-23T13:48:15.655Z,65
2018-05-23T13:49:17.050Z,65
2018-05-23T13:50:18.444Z,65
2018-05-23T13:51:19.847Z,65
2018-05-23T13:52:21.259Z,65
2018-05-23T13:53:22.651Z,65
2018-05-23T13:54:24.056Z,65
2018-05-23T13:55:25.462Z,60
2018-05-23T13:56:26.859Z,60
2018-05-23T13:57:28.253Z,60
2018-05-23T13:58:29.655Z,60
2018-05-23T13:59:31.047Z,60
2018-05-23T14:00:32.446Z,55
2018-05-23T14:01:33.863Z,55
2018-05-23T14:02:35.261Z,55
2018-05-23T14:03:36.651Z,60
2018-05-23T14:04:38.056Z,60
2018-05-23T14:05:39.460Z,60
2018-05-23T14:06:40.861Z,60
2018-05-23T14:07:42.267Z,60
2018-05-23T14:08:43.658Z,55
2018-05-23T14:09:45.113Z,55
2018-05-23T14:10:46.452Z,55
2018-05-23T14:11:47.854Z,55
2018-05-23T14:12:49.256Z,60
2018-05-23T14:13:51.553Z,60
2018-05-23T14:14:52.941Z,60
2018-05-23T14:15:54.334Z,60
2018-05-23T14:16:55.720Z,60
2018-05-23T14:17:57.117Z,65
2018-05-23T14:18:58.605Z,60
2018-05-23T14:19:59.869Z,60
2018-05-23T14:21:01.269Z,55
2018-05-23T14:22:02.659Z,55
2018-05-23T14:23:04.065Z,60